Time;durP1;ratioP1;P1;durP2;ratioP2;P2;SDS_P1;SDS_P2;PMS_P1;PMS_P2;Temp;Humidity;BMP_temperature;BMP_pressure;BME280_temperature;BME280_humidity;BME280_pressure;Samples;Min_cycle;Max_cycle;Signal;HPM_P1;HPM_P2
2023/05/21 00:00:19;;;;;;;3.70;0.83;;;16.20;47.60;;;;;;5087246;28;20188;-69
2023/05/21 00:02:47;;;;;;;6.97;1.23;;;16.10;48.30;;;;;;5087699;28;20243;-68
2023/05/21 00:05:15;;;;;;;3.73;0.97;;;16.20;48.50;;;;;;5084935;28;20284;-70
2023/05/21 00:07:44;;;;;;;2.20;1.10;;;16.30;48.40;;;;;;5087348;28;20258;-70
2023/05/21 00:10:12;;;;;;;3.30;0.90;;;16.30;48.10;;;;;;5088354;28;20810;-67
2023/05/21 00:12:40;;;;;;;4.53;1.30;;;16.50;48.20;;;;;;5088998;28;20209;-68
2023/05/21 00:15:08;;;;;;;7.07;1.07;;;16.60;48.00;;;;;;5089584;28;20199;-67
2023/05/21 00:17:35;;;;;;;2.53;0.90;;;16.70;47.70;;;;;;5090435;28;20194;-64
2023/05/21 00:20:07;;;;;;;4.37;1.10;;;16.70;46.70;;;;;;5085761;28;20599;-66
2023/05/21 00:22:35;;;;;;;5.73;1.10;;;16.80;46.50;;;;;;5085343;28;20197;-67
2023/05/21 00:25:03;;;;;;;0.97;0.80;;;16.90;46.70;;;;;;5087606;28;20326;-70
2023/05/21 00:27:33;;;;;;;1.10;0.63;;;16.90;46.70;;;;;;5087884;28;20196;-64
2023/05/21 00:30:01;;;;;;;5.17;1.00;;;16.90;46.20;;;;;;5084609;28;20213;-74
2023/05/21 00:32:28;;;;;;;4.60;0.93;;;16.90;46.60;;;;;;5088701;28;20188;-68
2023/05/21 00:34:57;;;;;;;1.43;1.07;;;17.10;45.90;;;;;;5087969;28;20644;-78
2023/05/21 00:37:24;;;;;;;2.97;0.90;;;17.10;45.80;;;;;;5087184;28;20186;-74
2023/05/21 00:39:51;;;;;;;1.80;0.80;;;17.30;45.90;;;;;;5088834;28;20186;-68
2023/05/21 00:42:26;;;;;;;2.57;0.97;;;17.30;46.30;;;;;;5088059;28;20239;-73
2023/05/21 00:44:53;;;;;;;1.93;0.90;;;17.50;45.70;;;;;;5089023;28;20197;-70
2023/05/21 00:47:21;;;;;;;4.50;0.93;;;17.50;45.60;;;;;;5087170;28;20186;-73
2023/05/21 00:49:53;;;;;;;5.70;0.80;;;17.50;45.60;;;;;;5088148;28;20204;-72
2023/05/21 00:52:21;;;;;;;3.20;0.87;;;17.50;45.50;;;;;;5080931;28;20212;-70
2023/05/21 00:54:52;;;;;;;3.30;1.00;;;17.60;45.50;;;;;;5085449;28;20183;-65
2023/05/21 00:57:21;;;;;;;1.33;0.70;;;17.70;45.20;;;;;;5087416;28;20277;-68
2023/05/21 00:59:51;;;;;;;0.53;0.53;;;17.70;44.70;;;;;;5091097;28;20647;-65
2023/05/21 01:02:22;;;;;;;0.77;0.67;;;17.60;45.10;;;;;;5088204;28;20174;-67
2023/05/21 01:04:50;;;;;;;2.00;0.83;;;17.60;45.00;;;;;;5089873;28;20182;-69
2023/05/21 01:07:17;;;;;;;1.70;0.70;;;17.70;44.60;;;;;;5087610;28;20190;-68
2023/05/21 01:09:45;;;;;;;2.60;0.70;;;17.90;45.10;;;;;;5088832;28;20297;-67
2023/05/21 01:12:13;;;;;;;0.93;0.73;;;18.00;44.40;;;;;;5091996;28;20679;-69
2023/05/21 01:14:41;;;;;;;1.70;0.73;;;18.10;44.70;;;;;;5090648;28;20183;-65
2023/05/21 01:17:09;;;;;;;1.10;0.70;;;18.30;44.10;;;;;;5090659;28;21071;-65
2023/05/21 01:19:36;;;;;;;0.97;0.70;;;18.30;44.40;;;;;;5087859;28;20179;-69
2023/05/21 01:22:07;;;;;;;4.10;0.67;;;18.50;44.00;;;;;;5093095;28;20186;-70
2023/05/21 01:24:34;;;;;;;1.70;0.60;;;18.50;44.10;;;;;;5090869;28;20228;-67
2023/05/21 01:27:06;;;;;;;0.93;0.70;;;18.50;44.00;;;;;;5084277;28;20182;-76
2023/05/21 01:29:34;;;;;;;2.47;0.50;;;18.40;43.90;;;;;;5089334;28;20694;-72
2023/05/21 01:32:31;;;;;;;0.73;0.60;;;18.30;43.90;;;;;;5087456;28;20182;-69
2023/05/21 01:35:01;;;;;;;2.40;0.60;;;18.40;43.70;;;;;;5084123;28;20183;-67
2023/05/21 01:37:44;;;;;;;0.43;0.43;;;18.50;43.60;;;;;;5089182;28;20773;-65
2023/05/21 01:40:24;;;;;;;2.50;0.60;;;18.40;43.20;;;;;;5090542;28;20537;-65
2023/05/21 01:42:51;;;;;;;2.17;0.60;;;18.50;43.00;;;;;;5087698;28;20186;-66
2023/05/21 01:45:21;;;;;;;0.83;0.53;;;18.50;43.30;;;;;;5087542;28;20175;-64
2023/05/21 01:47:53;;;;;;;0.77;0.60;;;18.60;43.70;;;;;;5084065;28;20539;-67
2023/05/21 01:50:26;;;;;;;1.23;0.60;;;18.70;43.50;;;;;;5086060;28;20222;-64
2023/05/21 01:53:04;;;;;;;1.43;0.57;;;18.80;43.50;;;;;;5087638;28;20656;-62
2023/05/21 01:55:32;;;;;;;2.43;0.77;;;19.10;43.40;;;;;;5088418;28;20587;-67
2023/05/21 01:58:00;;;;;;;0.70;0.50;;;19.30;42.80;;;;;;5086283;28;20183;-66
2023/05/21 02:00:28;;;;;;;1.20;0.60;;;19.50;42.70;;;;;;5086951;28;20656;-71
2023/05/21 02:02:55;;;;;;;1.13;0.50;;;19.60;42.60;;;;;;5087042;28;20178;-69
2023/05/21 02:05:22;;;;;;;1.60;0.93;;;19.60;42.00;;;;;;5089734;28;20175;-66
2023/05/21 02:07:53;;;;;;;0.63;0.40;;;19.60;42.20;;;;;;5091129;28;20183;-64
2023/05/21 02:10:21;;;;;;;0.40;0.40;;;19.60;41.60;;;;;;5089608;28;20572;-63
2023/05/21 02:12:48;;;;;;;0.50;0.50;;;19.80;42.10;;;;;;5084722;28;20644;-64
2023/05/21 02:15:16;;;;;;;0.70;0.60;;;19.50;41.90;;;;;;5088368;28;20185;-63
2023/05/21 02:17:50;;;;;;;0.60;0.50;;;19.80;42.10;;;;;;5083365;28;20325;-63
2023/05/21 02:20:18;;;;;;;1.50;0.60;;;19.60;41.80;;;;;;5089952;28;20232;-66
2023/05/21 02:22:47;;;;;;;0.60;0.47;;;19.50;42.40;;;;;;5090723;28;20188;-68
2023/05/21 02:25:17;;;;;;;0.50;0.50;;;19.30;42.40;;;;;;5091516;28;20670;-66
2023/05/21 02:27:45;;;;;;;0.97;0.50;;;19.50;41.90;;;;;;5089074;28;20183;-69
2023/05/21 02:30:14;;;;;;;3.03;0.50;;;19.30;42.00;;;;;;5087714;28;20226;-73
2023/05/21 02:32:42;;;;;;;0.87;0.50;;;19.50;41.80;;;;;;5089263;28;20305;-72
2023/05/21 02:35:11;;;;;;;0.73;0.50;;;19.50;42.10;;;;;;5085940;28;20551;-73
2023/05/21 02:37:40;;;;;;;1.70;0.67;;;19.90;42.20;;;;;;5088973;28;20263;-66
2023/05/21 02:40:11;;;;;;;0.50;0.47;;;19.70;41.90;;;;;;5086318;28;20186;-69
2023/05/21 02:42:40;;;;;;;0.73;0.50;;;19.50;41.80;;;;;;5085371;28;20179;-72
2023/05/21 02:45:12;;;;;;;1.03;0.47;;;19.70;42.10;;;;;;5084302;28;20211;-77
2023/05/21 02:47:39;;;;;;;0.50;0.50;;;19.80;42.70;;;;;;5086826;28;20190;-71
2023/05/21 02:50:08;;;;;;;2.20;0.50;;;20.00;42.20;;;;;;5088490;28;20590;-64
2023/05/21 02:52:36;;;;;;;2.30;0.50;;;19.80;42.50;;;;;;5086755;28;20277;-65
2023/05/21 02:55:03;;;;;;;3.67;0.50;;;19.70;42.50;;;;;;5083966;28;20182;-67
2023/05/21 02:57:31;;;;;;;0.50;0.50;;;19.60;42.60;;;;;;5087624;28;20235;-65
2023/05/21 02:59:58;;;;;;;0.63;0.60;;;19.50;43.00;;;;;;5086898;28;20189;-74
2023/05/21 03:02:26;;;;;;;0.40;0.40;;;19.80;43.10;;;;;;5088973;28;20178;-66
2023/05/21 03:04:54;;;;;;;0.60;0.40;;;19.90;41.80;;;;;;5088968;28;20179;-64
2023/05/21 03:07:23;;;;;;;0.80;0.50;;;20.10;41.80;;;;;;5087583;28;20190;-68
2023/05/21 03:09:50;;;;;;;1.43;0.60;;;20.20;41.50;;;;;;5085530;28;20237;-67
2023/05/21 03:12:18;;;;;;;1.67;0.70;;;20.30;41.20;;;;;;5087356;28;20206;-65
2023/05/21 03:14:45;;;;;;;0.63;0.60;;;20.00;41.10;;;;;;5087228;28;20182;-68
2023/05/21 03:17:14;;;;;;;3.40;0.93;;;19.90;41.60;;;;;;5084964;28;20194;-64
2023/05/21 03:19:42;;;;;;;1.77;0.60;;;20.10;41.10;;;;;;5086859;28;20186;-65
2023/05/21 03:22:10;;;;;;;0.60;0.40;;;20.20;41.50;;;;;;5089998;28;20269;-69
2023/05/21 03:24:41;;;;;;;0.73;0.50;;;19.90;41.50;;;;;;5084536;28;20175;-70
2023/05/21 03:27:08;;;;;;;0.47;0.40;;;19.90;41.20;;;;;;5088701;28;20201;-65
2023/05/21 03:29:36;;;;;;;0.40;0.40;;;19.90;41.00;;;;;;5087250;28;20645;-66
2023/05/21 03:32:04;;;;;;;1.23;0.50;;;20.00;40.50;;;;;;5087864;28;20205;-64
2023/05/21 03:34:34;;;;;;;5.83;0.77;;;20.00;40.20;;;;;;5082152;28;20206;-65
2023/05/21 03:37:01;;;;;;;2.10;0.50;;;19.90;40.60;;;;;;5082820;28;20187;-70
2023/05/21 03:39:29;;;;;;;1.23;0.50;;;19.70;40.90;;;;;;5081356;28;20183;-64
2023/05/21 03:41:56;;;;;;;0.87;0.50;;;19.70;40.60;;;;;;5086959;28;20670;-65
2023/05/21 03:44:23;;;;;;;0.40;0.40;;;19.80;40.70;;;;;;5082768;28;20270;-63
2023/05/21 03:46:51;;;;;;;1.27;0.60;;;19.80;41.00;;;;;;5082843;28;20178;-65
2023/05/21 03:49:19;;;;;;;2.57;0.63;;;20.10;40.70;;;;;;5083195;28;20297;-65
2023/05/21 03:51:46;;;;;;;2.50;0.50;;;19.90;40.50;;;;;;5085599;28;20541;-63
2023/05/21 03:54:14;;;;;;;1.97;0.70;;;19.70;40.80;;;;;;5089913;28;20225;-64
2023/05/21 03:56:41;;;;;;;2.77;0.57;;;19.80;40.90;;;;;;5088904;28;20251;-65
2023/05/21 03:59:09;;;;;;;1.63;0.80;;;19.90;41.10;;;;;;5084952;28;20205;-72
2023/05/21 04:01:37;;;;;;;3.57;0.60;;;20.00;40.80;;;;;;5087492;28;20175;-68
2023/05/21 04:04:05;;;;;;;2.50;0.50;;;20.10;40.30;;;;;;5088288;28;20197;-68
2023/05/21 04:06:32;;;;;;;5.17;0.70;;;20.10;40.30;;;;;;5088193;28;20185;-64
2023/05/21 04:09:00;;;;;;;4.13;0.60;;;19.80;41.40;;;;;;5087885;28;20221;-65
2023/05/21 04:11:27;;;;;;;0.50;0.50;;;19.80;41.70;;;;;;5088701;28;20221;-65
2023/05/21 04:13:54;;;;;;;3.47;0.70;;;19.70;41.60;;;;;;5086620;28;20181;-65
2023/05/21 04:16:23;;;;;;;2.00;0.50;;;19.70;41.70;;;;;;5083569;28;20217;-66
2023/05/21 04:18:51;;;;;;;2.33;0.40;;;19.50;42.00;;;;;;5083914;28;20637;-67
2023/05/21 04:21:18;;;;;;;1.00;0.60;;;19.50;42.40;;;;;;5089096;28;20571;-65
2023/05/21 04:23:45;;;;;;;0.83;0.70;;;19.60;41.90;;;;;;5089105;28;20225;-66
2023/05/21 04:26:15;;;;;;;0.50;0.50;;;20.10;41.80;;;;;;5083951;28;20244;-65
2023/05/21 04:28:44;;;;;;;1.60;0.70;;;19.70;41.20;;;;;;5084528;28;20239;-64
2023/05/21 04:31:12;;;;;;;1.80;0.50;;;19.70;41.50;;;;;;5088973;28;20213;-63
2023/05/21 04:33:44;;;;;;;1.67;0.50;;;19.50;41.90;;;;;;5088205;28;20181;-68
2023/05/21 04:36:12;;;;;;;2.53;0.70;;;19.60;41.90;;;;;;5087815;28;20190;-70
2023/05/21 04:38:40;;;;;;;0.97;0.40;;;19.30;41.70;;;;;;5089995;28;20624;-68
2023/05/21 04:41:09;;;;;;;0.83;0.50;;;19.50;41.10;;;;;;5091633;28;20637;-62
2023/05/21 04:43:37;;;;;;;0.40;0.40;;;19.40;41.70;;;;;;5091738;28;20218;-67
2023/05/21 04:46:04;;;;;;;13.57;0.70;;;19.90;41.30;;;;;;5091668;28;20229;-64
2023/05/21 04:48:32;;;;;;;0.50;0.50;;;19.70;41.20;;;;;;5088967;28;20194;-65
2023/05/21 04:50:59;;;;;;;2.10;0.40;;;19.80;41.10;;;;;;5086141;28;20210;-66
2023/05/21 04:53:28;;;;;;;1.60;0.50;;;19.40;41.60;;;;;;5092041;28;20766;-73
2023/05/21 04:55:58;;;;;;;0.60;0.50;;;19.50;41.90;;;;;;5087662;28;20198;-64
2023/05/21 04:58:26;;;;;;;2.10;0.40;;;19.80;42.00;;;;;;5091004;28;20585;-64
2023/05/21 05:00:55;;;;;;;1.00;0.40;;;20.20;41.50;;;;;;5092610;28;20183;-65
2023/05/21 05:03:22;;;;;;;2.97;1.03;;;20.20;41.20;;;;;;5090160;28;20186;-62
2023/05/21 05:05:50;;;;;;;0.57;0.50;;;20.50;40.90;;;;;;5089907;28;20182;-71
2023/05/21 05:08:17;;;;;;;0.97;0.50;;;20.50;41.00;;;;;;5091860;28;20211;-65
2023/05/21 05:10:45;;;;;;;0.50;0.50;;;20.00;41.00;;;;;;5091780;28;20684;-64
2023/05/21 05:13:12;;;;;;;0.50;0.50;;;20.10;41.20;;;;;;5089843;28;20182;-62
2023/05/21 05:15:39;;;;;;;0.50;0.50;;;20.00;41.50;;;;;;5092089;28;20661;-67
2023/05/21 05:18:10;;;;;;;0.90;0.50;;;19.80;42.20;;;;;;5091267;28;20186;-73
2023/05/21 05:20:38;;;;;;;1.87;0.63;;;19.60;42.30;;;;;;5087459;28;20617;-63
2023/05/21 05:23:05;;;;;;;0.73;0.53;;;19.70;42.10;;;;;;5090951;28;20183;-67
2023/05/21 05:25:33;;;;;;;1.10;0.50;;;19.80;41.80;;;;;;5093788;28;20288;-63
2023/05/21 05:28:00;;;;;;;0.93;0.60;;;19.30;42.70;;;;;;5088697;28;20655;-63
2023/05/21 05:30:27;;;;;;;1.10;0.50;;;19.70;42.50;;;;;;5090045;28;20223;-63
2023/05/21 05:32:55;;;;;;;0.90;0.60;;;19.60;42.70;;;;;;5089581;28;20178;-70
2023/05/21 05:35:22;;;;;;;0.50;0.50;;;19.50;42.70;;;;;;5089500;28;20217;-71
2023/05/21 05:37:50;;;;;;;0.50;0.50;;;19.70;42.50;;;;;;5091592;28;20186;-64
2023/05/21 05:40:17;;;;;;;0.40;0.40;;;19.90;42.20;;;;;;5088137;28;20186;-70
2023/05/21 05:42:45;;;;;;;0.40;0.40;;;19.80;42.10;;;;;;5083102;28;21058;-65
2023/05/21 05:45:12;;;;;;;3.07;0.50;;;19.60;42.00;;;;;;5090198;28;20190;-68
2023/05/21 05:47:40;;;;;;;1.00;0.50;;;19.50;42.10;;;;;;5090167;28;20190;-64
2023/05/21 05:50:08;;;;;;;1.00;0.40;;;19.30;42.30;;;;;;5091760;28;20206;-65
2023/05/21 05:52:35;;;;;;;0.60;0.50;;;19.40;42.40;;;;;;5087534;28;20186;-67
2023/05/21 05:55:02;;;;;;;1.13;0.50;;;19.60;42.00;;;;;;5090212;28;20183;-66
2023/05/21 05:57:30;;;;;;;1.43;0.60;;;19.40;42.60;;;;;;5089460;28;20174;-68
2023/05/21 05:59:57;;;;;;;3.37;0.60;;;20.00;42.00;;;;;;5092547;28;20218;-68
2023/05/21 06:02:24;;;;;;;1.00;0.67;;;19.80;42.10;;;;;;5089786;28;20187;-71
2023/05/21 06:04:52;;;;;;;0.67;0.50;;;19.90;42.20;;;;;;5088956;28;20207;-65
2023/05/21 06:07:19;;;;;;;1.47;0.60;;;19.40;42.60;;;;;;5090757;28;20178;-71
2023/05/21 06:09:46;;;;;;;0.80;0.60;;;18.70;44.70;;;;;;5084582;28;20580;-67
2023/05/21 06:12:14;;;;;;;1.13;0.60;;;18.50;45.50;;;;;;5092619;28;20187;-68
2023/05/21 06:14:44;;;;;;;1.83;0.70;;;18.60;45.10;;;;;;5087410;28;20186;-69
2023/05/21 06:17:12;;;;;;;2.63;0.60;;;18.40;45.70;;;;;;5090204;28;20239;-64
2023/05/21 06:19:40;;;;;;;1.20;0.60;;;18.00;46.50;;;;;;5091300;28;20712;-69
2023/05/21 06:22:07;;;;;;;1.07;0.60;;;17.80;47.10;;;;;;5088215;28;20186;-69
2023/05/21 06:24:34;;;;;;;2.00;0.60;;;17.70;47.50;;;;;;5090630;28;20832;-64
2023/05/21 06:27:02;;;;;;;3.20;0.67;;;17.50;47.50;;;;;;5089392;28;20174;-65
2023/05/21 06:29:30;;;;;;;1.57;0.60;;;17.40;47.80;;;;;;5091250;28;20183;-66
2023/05/21 06:31:57;;;;;;;1.27;0.70;;;17.30;48.10;;;;;;5089740;28;20179;-64
2023/05/21 06:34:25;;;;;;;0.53;0.53;;;17.30;48.20;;;;;;5089744;28;20206;-65
2023/05/21 06:36:52;;;;;;;1.90;0.60;;;17.30;47.80;;;;;;5089082;28;20540;-68
2023/05/21 06:39:19;;;;;;;0.70;0.60;;;17.20;47.90;;;;;;5088919;28;20205;-71
2023/05/21 06:41:47;;;;;;;1.00;0.80;;;17.00;48.20;;;;;;5084618;28;20674;-70
2023/05/21 06:44:15;;;;;;;1.40;0.60;;;17.00;48.50;;;;;;5089983;28;20194;-66
2023/05/21 06:46:42;;;;;;;0.70;0.60;;;16.80;48.30;;;;;;5085857;28;20645;-72
2023/05/21 06:49:12;;;;;;;2.70;0.90;;;16.80;48.90;;;;;;5089474;28;20644;-70
2023/05/21 06:51:39;;;;;;;1.80;0.97;;;16.70;49.40;;;;;;5088485;28;20742;-71
2023/05/21 06:54:07;;;;;;;1.13;0.90;;;16.70;49.30;;;;;;5088563;28;20175;-69
2023/05/21 06:56:34;;;;;;;1.00;0.60;;;16.60;49.30;;;;;;5084974;28;20632;-75
2023/05/21 06:59:01;;;;;;;2.10;1.07;;;16.60;49.40;;;;;;5090759;28;20212;-67
2023/05/21 07:01:29;;;;;;;1.67;0.80;;;16.50;49.60;;;;;;5085221;28;20193;-67
2023/05/21 07:03:56;;;;;;;3.40;0.90;;;16.40;49.50;;;;;;5087856;28;20312;-70
2023/05/21 07:06:24;;;;;;;1.97;1.20;;;16.40;49.50;;;;;;5089817;28;20647;-63
2023/05/21 07:08:51;;;;;;;1.33;0.90;;;16.30;49.60;;;;;;5087123;28;20205;-68
2023/05/21 07:11:18;;;;;;;1.57;0.90;;;16.30;49.90;;;;;;5084159;28;20233;-65
2023/05/21 07:13:46;;;;;;;2.07;0.90;;;16.30;49.60;;;;;;5087589;28;20176;-67
2023/05/21 07:16:15;;;;;;;2.87;1.13;;;16.40;49.80;;;;;;5088544;28;20255;-73
2023/05/21 07:18:42;;;;;;;2.57;1.20;;;16.40;49.70;;;;;;5086512;28;20180;-66
2023/05/21 07:21:10;;;;;;;1.93;1.23;;;16.40;49.90;;;;;;5086562;28;20248;-74
2023/05/21 07:23:38;;;;;;;1.30;1.00;;;16.40;50.10;;;;;;5089238;28;20244;-71
2023/05/21 07:26:05;;;;;;;1.83;1.10;;;16.40;49.90;;;;;;5089160;28;20186;-71
2023/05/21 07:28:32;;;;;;;2.80;1.30;;;16.40;50.10;;;;;;5086705;28;20272;-69
2023/05/21 07:31:00;;;;;;;3.17;1.67;;;16.40;50.10;;;;;;5087707;28;20222;-71
2023/05/21 07:33:28;;;;;;;1.53;1.40;;;16.40;50.10;;;;;;5088240;28;20631;-69
2023/05/21 07:35:55;;;;;;;6.37;1.10;;;16.40;50.20;;;;;;5089979;28;20181;-72
2023/05/21 07:38:23;;;;;;;2.40;1.23;;;16.30;50.40;;;;;;5088578;28;20171;-64
2023/05/21 07:40:50;;;;;;;2.03;1.17;;;16.30;50.50;;;;;;5086924;28;20288;-73
2023/05/21 07:43:17;;;;;;;1.70;1.30;;;16.30;50.40;;;;;;5084221;28;20259;-65
2023/05/21 07:45:45;;;;;;;1.77;1.10;;;16.30;50.60;;;;;;5082033;28;20189;-66
2023/05/21 07:48:13;;;;;;;2.40;1.53;;;16.30;50.60;;;;;;5086312;28;20229;-70
2023/05/21 07:50:40;;;;;;;3.37;1.33;;;16.30;50.70;;;;;;5087249;28;20679;-73
2023/05/21 07:53:07;;;;;;;1.50;1.40;;;16.30;50.90;;;;;;5084948;28;20258;-72
2023/05/21 07:55:35;;;;;;;2.80;1.33;;;16.20;51.10;;;;;;5085367;28;20183;-73
2023/05/21 07:58:02;;;;;;;1.97;1.37;;;16.20;51.30;;;;;;5084114;28;20181;-63
2023/05/21 08:00:41;;;;;;;1.83;1.50;;;16.10;51.70;;;;;;5083547;28;20544;-66
2023/05/21 08:03:10;;;;;;;3.93;1.40;;;16.00;51.70;;;;;;5086316;28;20189;-70
2023/05/21 08:05:39;;;;;;;2.20;1.83;;;16.00;51.90;;;;;;5085206;28;20327;-70
2023/05/21 08:08:07;;;;;;;2.93;1.80;;;16.00;52.10;;;;;;5088884;28;20656;-63
2023/05/21 08:10:35;;;;;;;2.73;1.90;;;15.90;52.20;;;;;;5085646;28;20264;-66
2023/05/21 08:13:03;;;;;;;5.07;2.77;;;15.90;52.40;;;;;;5085633;28;20175;-62
2023/05/21 08:15:30;;;;;;;4.90;2.73;;;15.80;52.70;;;;;;5084348;28;20694;-65
2023/05/21 08:17:58;;;;;;;4.13;2.70;;;15.70;53.10;;;;;;5087537;28;20193;-71
2023/05/21 08:20:25;;;;;;;4.07;2.53;;;15.60;53.70;;;;;;5089980;28;20517;-64
2023/05/21 08:22:53;;;;;;;4.07;2.40;;;15.60;53.60;;;;;;5085122;28;20190;-71
2023/05/21 08:25:21;;;;;;;2.10;1.67;;;15.50;53.90;;;;;;5084871;28;20265;-64
2023/05/21 08:27:48;;;;;;;2.63;1.80;;;15.50;54.00;;;;;;5085536;28;20186;-77
2023/05/21 08:30:15;;;;;;;2.80;1.93;;;15.50;54.10;;;;;;5086079;28;20301;-69
2023/05/21 08:32:43;;;;;;;2.67;1.80;;;15.30;54.30;;;;;;5087873;28;20724;-64
2023/05/21 08:35:10;;;;;;;2.50;2.03;;;15.30;54.30;;;;;;5085371;28;20178;-65
2023/05/21 08:37:38;;;;;;;3.23;1.77;;;15.30;54.50;;;;;;5086071;28;20191;-70
2023/05/21 08:40:06;;;;;;;3.10;1.87;;;15.30;54.50;;;;;;5086228;28;20193;-63
2023/05/21 08:42:44;;;;;;;5.27;2.37;;;15.20;55.00;;;;;;5089578;28;21510;-72
2023/05/21 08:45:13;;;;;;;3.60;1.73;;;15.20;55.10;;;;;;5088304;28;20182;-69
2023/05/21 08:47:44;;;;;;;2.40;1.80;;;15.10;55.30;;;;;;5082654;28;20181;-63
2023/05/21 08:50:19;;;;;;;2.60;1.77;;;15.10;55.50;;;;;;5086904;28;20223;-66
2023/05/21 08:52:46;;;;;;;3.57;2.00;;;15.00;55.80;;;;;;5086369;28;20190;-63
2023/05/21 08:55:15;;;;;;;3.20;1.77;;;15.00;56.10;;;;;;5084273;28;20633;-63
2023/05/21 08:57:43;;;;;;;3.87;1.50;;;14.90;56.30;;;;;;5087930;28;20209;-64
2023/05/21 09:00:12;;;;;;;2.27;1.60;;;14.90;56.40;;;;;;5088768;28;20187;-64
2023/05/21 09:02:42;;;;;;;2.23;1.40;;;14.90;56.50;;;;;;5082886;28;20194;-64
2023/05/21 09:05:11;;;;;;;2.67;1.60;;;14.80;56.90;;;;;;5088297;28;20669;-63
2023/05/21 09:07:46;;;;;;;3.00;1.60;;;14.80;56.70;;;;;;5084212;28;20183;-64
2023/05/21 09:10:16;;;;;;;3.27;1.73;;;14.80;56.80;;;;;;5089093;28;20613;-66
2023/05/21 09:12:43;;;;;;;4.27;1.80;;;14.80;57.00;;;;;;5083925;28;20676;-66
2023/05/21 09:15:12;;;;;;;3.23;1.70;;;14.80;56.70;;;;;;5087305;28;20214;-64
2023/05/21 09:17:40;;;;;;;2.50;1.70;;;14.80;56.90;;;;;;5088773;28;20228;-68
2023/05/21 09:20:13;;;;;;;2.93;1.73;;;14.80;57.40;;;;;;5089409;28;20433;-71
2023/05/21 09:22:45;;;;;;;2.67;1.90;;;14.80;57.20;;;;;;5088857;28;20201;-69
2023/05/21 09:25:20;;;;;;;4.77;2.13;;;14.80;57.60;;;;;;5092284;28;20717;-68
2023/05/21 09:27:48;;;;;;;1.90;1.67;;;14.80;57.50;;;;;;5085581;28;20174;-70
2023/05/21 09:30:18;;;;;;;3.37;1.53;;;14.80;57.50;;;;;;5091147;28;20219;-66
2023/05/21 09:32:51;;;;;;;2.17;1.77;;;14.80;57.50;;;;;;5084434;28;20195;-67
2023/05/21 09:35:19;;;;;;;2.37;1.67;;;14.80;57.70;;;;;;5087949;28;20277;-66
2023/05/21 09:37:51;;;;;;;4.40;1.80;;;14.80;57.80;;;;;;5082443;28;20198;-66
2023/05/21 09:40:20;;;;;;;4.00;1.60;;;14.80;57.70;;;;;;5087566;28;20669;-69
2023/05/21 09:42:49;;;;;;;2.70;1.80;;;14.80;57.80;;;;;;5086208;28;20185;-75
2023/05/21 09:45:27;;;;;;;2.47;1.73;;;14.80;58.20;;;;;;5088371;28;20210;-78
2023/05/21 09:47:55;;;;;;;4.53;2.20;;;14.70;58.10;;;;;;5085618;28;20223;-73
2023/05/21 09:50:28;;;;;;;5.00;2.23;;;14.70;58.30;;;;;;5087946;28;20211;-73
2023/05/21 09:52:57;;;;;;;2.40;1.50;;;14.70;58.20;;;;;;5086727;28;20278;-74
2023/05/21 09:55:25;;;;;;;2.47;1.77;;;14.60;58.50;;;;;;5088065;28;20183;-70
2023/05/21 09:57:53;;;;;;;5.00;2.17;;;14.50;58.60;;;;;;5088188;28;20182;-72
2023/05/21 10:00:26;;;;;;;3.37;1.90;;;14.50;59.10;;;;;;5088098;28;20679;-74
2023/05/21 10:03:15;;;;;;;3.30;2.00;;;14.50;59.60;;;;;;5087430;28;20255;-74
2023/05/21 10:05:43;;;;;;;3.10;1.90;;;14.40;59.70;;;;;;5091390;28;20191;-72
2023/05/21 10:08:13;;;;;;;3.60;2.07;;;14.40;59.90;;;;;;5088324;28;20186;-74
2023/05/21 10:10:42;;;;;;;2.67;1.63;;;14.30;60.00;;;;;;5087814;28;20233;-74
2023/05/21 10:13:11;;;;;;;4.60;2.20;;;14.30;60.00;;;;;;5086515;28;20187;-75
2023/05/21 10:15:47;;;;;;;3.33;1.90;;;14.30;60.20;;;;;;5086636;28;20190;-77
2023/05/21 10:18:15;;;;;;;4.53;1.70;;;14.30;60.00;;;;;;5089199;28;20199;-75
2023/05/21 10:20:43;;;;;;;4.77;2.10;;;14.30;60.20;;;;;;5089681;28;20189;-79
2023/05/21 10:23:11;;;;;;;3.17;1.73;;;14.30;60.50;;;;;;5091691;28;20543;-80
2023/05/21 10:25:39;;;;;;;4.40;2.30;;;14.20;61.20;;;;;;5087554;28;20269;-72
2023/05/21 10:28:07;;;;;;;5.37;3.10;;;14.10;61.60;;;;;;5088091;28;20186;-78
2023/05/21 10:30:35;;;;;;;3.17;1.90;;;14.10;61.40;;;;;;5090613;28;20222;-82
2023/05/21 10:33:03;;;;;;;3.63;2.00;;;14.00;61.20;;;;;;5090485;28;20517;-76
2023/05/21 10:35:32;;;;;;;5.50;2.57;;;14.00;61.80;;;;;;5087582;28;20291;-81
2023/05/21 10:38:03;;;;;;;3.80;2.33;;;14.00;61.50;;;;;;5089168;28;20175;-75
2023/05/21 10:40:31;;;;;;;4.73;3.20;;;14.00;61.70;;;;;;5080879;28;20551;-78
2023/05/21 10:43:25;;;;;;;3.83;2.50;;;14.00;61.90;;;;;;5088852;28;20191;-76
2023/05/21 10:46:04;;;;;;;4.53;2.20;;;13.90;62.50;;;;;;5086994;28;20588;-78
2023/05/21 10:48:44;;;;;;;3.40;2.10;;;13.90;62.40;;;;;;5088100;28;20219;-73
2023/05/21 10:51:27;;;;;;;3.17;2.03;;;13.80;62.60;;;;;;5086243;28;20834;-79
2023/05/21 10:54:00;;;;;;;5.73;2.27;;;13.80;62.60;;;;;;5088243;28;20192;-78
2023/05/21 10:56:54;;;;;;;2.37;1.83;;;13.90;62.40;;;;;;5086918;28;20301;-75
2023/05/21 10:59:41;;;;;;;1.87;1.57;;;13.90;62.20;;;;;;5066642;28;20231;-69
2023/05/21 11:02:11;;;;;;;4.30;2.03;;;13.90;62.20;;;;;;5087490;28;20190;-78
2023/05/21 11:04:43;;;;;;;2.50;1.70;;;13.90;62.40;;;;;;5089802;28;20183;-78
2023/05/21 11:07:14;;;;;;;3.03;1.50;;;13.90;62.20;;;;;;5091671;28;20182;-79
2023/05/21 11:09:42;;;;;;;3.47;1.60;;;13.90;62.30;;;;;;5088709;28;20222;-74
2023/05/21 11:12:11;;;;;;;2.53;1.53;;;14.00;61.80;;;;;;5091385;28;20285;-74
2023/05/21 11:14:40;;;;;;;1.90;1.27;;;14.00;62.10;;;;;;5087992;28;20202;-69
2023/05/21 11:17:13;;;;;;;1.77;1.40;;;14.00;61.90;;;;;;5085480;28;20263;-75
2023/05/21 11:19:42;;;;;;;1.40;1.30;;;14.00;61.90;;;;;;5086566;28;21496;-78
2023/05/21 11:22:29;;;;;;;2.10;1.40;;;14.00;62.00;;;;;;5088749;28;20187;-74
2023/05/21 11:25:02;;;;;;;3.17;1.80;;;14.00;61.90;;;;;;5086400;28;20643;-76
2023/05/21 11:27:36;;;;;;;3.07;1.40;;;14.10;61.80;;;;;;5087735;28;20669;-76
2023/05/21 11:30:08;;;;;;;3.97;1.40;;;14.10;61.60;;;;;;5088873;28;20210;-81
2023/05/21 11:32:39;;;;;;;2.57;1.40;;;14.10;61.40;;;;;;5086671;28;20688;-74
2023/05/21 11:35:07;;;;;;;3.73;1.20;;;14.10;61.70;;;;;;5090854;28;20577;-77
2023/05/21 11:37:40;;;;;;;3.87;1.30;;;14.10;61.70;;;;;;5085766;28;20572;-72
2023/05/21 11:40:37;;;;;;;2.27;1.30;;;14.20;61.50;;;;;;5087597;28;20227;-69
2023/05/21 11:43:04;;;;;;;2.93;1.20;;;14.10;61.70;;;;;;5076849;28;20202;-75
2023/05/21 11:45:33;;;;;;;3.93;1.37;;;14.00;61.90;;;;;;5086409;28;20213;-77
2023/05/21 11:48:00;;;;;;;1.70;1.30;;;14.00;61.80;;;;;;5082631;28;20210;-76
2023/05/21 11:50:30;;;;;;;2.97;1.57;;;14.10;63.20;;;;;;5086367;28;20206;-73
2023/05/21 11:52:59;;;;;;;2.30;1.20;;;14.00;62.10;;;;;;5085597;28;20581;-76
2023/05/21 11:55:27;;;;;;;2.80;1.20;;;14.00;62.20;;;;;;5083482;28;20187;-67
2023/05/21 11:57:55;;;;;;;1.80;1.43;;;14.00;62.10;;;;;;5086843;28;20193;-77
2023/05/21 12:00:23;;;;;;;2.70;1.57;;;14.00;62.00;;;;;;5088025;28;20177;-76
2023/05/21 12:02:55;;;;;;;2.07;1.13;;;14.00;62.10;;;;;;5086588;28;20217;-73
2023/05/21 12:05:22;;;;;;;3.03;1.23;;;14.00;62.30;;;;;;5081157;28;20178;-73
2023/05/21 12:07:50;;;;;;;2.63;1.50;;;13.90;62.20;;;;;;5084416;28;20182;-74
2023/05/21 12:10:21;;;;;;;1.53;1.10;;;14.00;62.60;;;;;;5088121;28;20230;-75
2023/05/21 12:12:50;;;;;;;4.23;1.27;;;13.90;62.40;;;;;;5080196;28;20202;-73
2023/05/21 12:15:18;;;;;;;1.47;0.90;;;13.90;62.30;;;;;;5087098;28;20539;-76
2023/05/21 12:17:51;;;;;;;2.00;1.20;;;13.90;62.40;;;;;;5086441;28;20261;-72
2023/05/21 12:20:19;;;;;;;2.77;1.20;;;13.90;62.40;;;;;;5081257;28;20175;-74
2023/05/21 12:22:47;;;;;;;2.80;1.10;;;13.90;62.60;;;;;;5084664;28;20185;-74
2023/05/21 12:25:19;;;;;;;2.77;1.37;;;13.90;62.50;;;;;;5087495;28;20179;-83
2023/05/21 12:27:51;;;;;;;1.37;1.03;;;13.80;62.60;;;;;;5085875;28;20193;-77
2023/05/21 12:30:19;;;;;;;4.87;1.40;;;13.80;62.80;;;;;;5085821;28;20903;-76
2023/05/21 12:32:46;;;;;;;2.80;0.90;;;13.80;62.70;;;;;;5087144;28;20179;-77
2023/05/21 12:35:23;;;;;;;3.03;1.60;;;13.80;62.80;;;;;;5085849;28;20642;-79
2023/05/21 12:37:50;;;;;;;2.57;1.13;;;13.80;63.10;;;;;;5086507;28;20604;-74
2023/05/21 12:40:19;;;;;;;1.33;1.20;;;13.70;63.40;;;;;;5085872;28;20210;-75
2023/05/21 12:42:46;;;;;;;2.97;1.30;;;13.60;63.90;;;;;;5086795;28;20180;-70
2023/05/21 12:45:17;;;;;;;5.63;1.77;;;13.50;64.20;;;;;;5087640;28;20194;-72
2023/05/21 12:47:49;;;;;;;2.43;1.20;;;13.40;64.80;;;;;;5088882;28;20232;-79
2023/05/21 12:50:21;;;;;;;4.30;1.40;;;13.30;65.20;;;;;;5089441;28;20636;-74
2023/05/21 12:52:48;;;;;;;8.97;1.50;;;13.20;65.60;;;;;;5084853;28;20188;-76
2023/05/21 12:55:16;;;;;;;2.20;1.30;;;13.20;65.90;;;;;;5093464;28;20480;-76
2023/05/21 12:57:44;;;;;;;1.40;1.23;;;13.10;66.10;;;;;;5092696;28;20183;-76